Time;durP1;ratioP1;P1;durP2;ratioP2;P2;SDS_P1;SDS_P2;PMS_P1;PMS_P2;Temp;Humidity;BMP_temperature;BMP_pressure;BME280_temperature;BME280_humidity;BME280_pressure;Samples;Min_cycle;Max_cycle;Signal;HPM_P1;HPM_P2
2022/11/10 00:02:16;;;;;;;12.25;3.22;;;13.10;77.30;;;;;;5021181;28;20374;-62
2022/11/10 00:05:00;;;;;;;10.43;2.80;;;13.10;77.30;;;;;;5023014;28;20496;-62
2022/11/10 00:07:44;;;;;;;6.80;2.83;;;13.10;77.30;;;;;;5027326;28;20060;-62
2022/11/10 00:10:29;;;;;;;11.45;3.10;;;13.00;77.20;;;;;;5021271;28;20049;-62
2022/11/10 00:13:13;;;;;;;11.90;3.17;;;13.00;77.30;;;;;;5017910;28;20048;-62
2022/11/10 00:19:02;;;;;;;14.60;2.90;;;13.00;77.30;;;;;;5028084;28;20051;-62
2022/11/10 00:21:46;;;;;;;11.40;2.90;;;13.00;77.40;;;;;;5030722;28;20099;-63
2022/11/10 00:24:31;;;;;;;9.48;3.40;;;12.90;77.40;;;;;;5014232;28;20072;-63
2022/11/10 00:27:15;;;;;;;8.85;2.60;;;12.90;77.40;;;;;;5020325;28;20446;-63
2022/11/10 00:29:59;;;;;;;8.45;2.58;;;12.90;77.50;;;;;;5028887;28;20485;-63
2022/11/10 00:32:46;;;;;;;12.65;3.33;;;12.90;77.50;;;;;;5026058;28;20374;-62
2022/11/10 00:35:30;;;;;;;10.35;2.95;;;12.90;77.60;;;;;;5027851;28;20052;-62
2022/11/10 00:38:14;;;;;;;11.90;2.88;;;12.90;77.60;;;;;;5021018;28;20043;-62
2022/11/10 00:41:00;;;;;;;9.95;2.88;;;12.90;77.60;;;;;;5031040;28;20071;-62
2022/11/10 00:43:44;;;;;;;11.63;3.28;;;12.90;77.70;;;;;;5029050;28;20041;-63
2022/11/10 00:46:28;;;;;;;9.48;3.35;;;12.90;77.70;;;;;;5029232;28;20096;-62
2022/11/10 00:49:12;;;;;;;9.45;2.97;;;12.90;77.70;;;;;;5019291;28;20044;-63
2022/11/10 00:51:56;;;;;;;12.82;3.17;;;12.80;77.70;;;;;;5023200;28;20057;-63
2022/11/10 00:54:40;;;;;;;9.98;3.25;;;12.80;77.70;;;;;;5030267;28;20056;-63
2022/11/10 00:57:24;;;;;;;8.02;2.47;;;12.80;77.70;;;;;;5027426;28;20383;-63
2022/11/10 01:00:09;;;;;;;9.95;3.13;;;12.80;77.80;;;;;;5011522;28;20041;-63
2022/11/10 01:02:53;;;;;;;11.63;3.22;;;12.80;77.90;;;;;;5015191;28;20076;-63
2022/11/10 01:05:37;;;;;;;10.77;2.95;;;12.80;77.90;;;;;;5030228;28;20469;-63
2022/11/10 01:08:22;;;;;;;8.90;3.05;;;12.80;77.90;;;;;;5019935;28;20589;-62
2022/11/10 01:11:18;;;;;;;9.85;3.10;;;12.80;77.90;;;;;;5013247;28;20041;-63
2022/11/10 01:14:02;;;;;;;10.15;3.33;;;12.80;77.90;;;;;;5020032;28;20513;-63
2022/11/10 01:16:46;;;;;;;14.57;3.50;;;12.80;77.90;;;;;;5033693;28;20048;-63
2022/11/10 01:19:30;;;;;;;9.50;2.38;;;12.80;77.90;;;;;;5021692;28;20433;-63
2022/11/10 01:22:14;;;;;;;11.30;3.22;;;12.80;78.00;;;;;;5030846;28;20045;-62
2022/11/10 01:24:58;;;;;;;13.73;3.28;;;12.70;77.90;;;;;;5015336;28;20113;-62
2022/11/10 01:27:42;;;;;;;10.57;2.95;;;12.70;78.00;;;;;;5027177;28;20362;-63
2022/11/10 01:30:26;;;;;;;10.38;3.05;;;12.70;78.10;;;;;;5026885;28;20599;-62
2022/11/10 01:33:10;;;;;;;9.60;2.80;;;12.70;78.10;;;;;;5026088;28;20040;-63
2022/11/10 01:35:55;;;;;;;11.38;2.97;;;12.70;78.10;;;;;;5034784;28;20385;-62
2022/11/10 01:38:40;;;;;;;10.30;2.97;;;12.70;78.10;;;;;;5028386;28;20064;-62
2022/11/10 01:41:24;;;;;;;9.27;2.63;;;12.70;78.10;;;;;;5018548;28;20041;-63
2022/11/10 01:44:21;;;;;;;7.25;2.95;;;12.70;78.20;;;;;;5018659;28;20064;-63
2022/11/10 01:47:05;;;;;;;8.32;2.92;;;12.70;78.20;;;;;;5036925;28;20075;-63
2022/11/10 01:49:49;;;;;;;9.68;2.72;;;12.70;78.30;;;;;;5025002;28;20041;-62
2022/11/10 01:52:33;;;;;;;9.00;2.90;;;12.70;78.30;;;;;;5024971;28;20036;-62
2022/11/10 01:55:17;;;;;;;12.55;3.35;;;12.70;78.30;;;;;;5018359;28;20140;-63
2022/11/10 01:58:02;;;;;;;11.20;3.10;;;12.70;78.30;;;;;;5031139;28;20083;-62
2022/11/10 02:00:46;;;;;;;13.50;3.65;;;12.70;78.30;;;;;;5021540;28;20056;-63
2022/11/10 02:03:48;;;;;;;14.10;3.33;;;12.60;78.30;;;;;;5022764;28;20049;-62
2022/11/10 02:06:37;;;;;;;9.40;3.20;;;12.60;78.30;;;;;;5029882;28;20481;-63
2022/11/10 02:09:22;;;;;;;9.52;2.72;;;12.60;78.40;;;;;;5014967;28;20378;-63
2022/11/10 02:12:06;;;;;;;11.32;3.05;;;12.60;78.40;;;;;;5024303;28;20500;-62
2022/11/10 02:14:50;;;;;;;9.95;3.05;;;12.60;78.40;;;;;;5024326;28;20056;-62
2022/11/10 02:17:35;;;;;;;10.57;3.25;;;12.60;78.50;;;;;;5010141;28;20120;-63
2022/11/10 02:20:20;;;;;;;7.45;2.67;;;12.60;78.50;;;;;;5030420;28;20132;-63
2022/11/10 02:23:33;;;;;;;12.43;3.05;;;12.60;78.50;;;;;;5026344;28;20442;-63
2022/11/10 02:26:28;;;;;;;10.13;2.72;;;12.60;78.40;;;;;;5009912;28;20068;-63
2022/11/10 02:29:14;;;;;;;10.15;2.90;;;12.60;78.60;;;;;;5028229;28;20052;-63
2022/11/10 02:31:58;;;;;;;10.50;2.55;;;12.60;78.60;;;;;;5035699;28;20048;-63
2022/11/10 02:34:42;;;;;;;8.55;2.25;;;12.60;78.60;;;;;;5018525;28;20413;-63
2022/11/10 02:37:26;;;;;;;10.35;3.67;;;12.60;78.60;;;;;;5034232;28;20087;-63
2022/11/10 02:40:11;;;;;;;11.43;3.17;;;12.60;78.60;;;;;;5018447;28;20430;-63
2022/11/10 02:42:55;;;;;;;8.02;2.25;;;12.60;78.70;;;;;;5020848;28;20057;-63
2022/11/10 02:45:42;;;;;;;9.30;2.53;;;12.60;78.70;;;;;;5019074;28;20103;-62
2022/11/10 02:48:27;;;;;;;11.70;2.88;;;12.60;78.70;;;;;;5033480;28;20033;-62
2022/11/10 02:51:11;;;;;;;13.57;3.28;;;12.70;78.80;;;;;;5026246;28;20090;-63
2022/11/10 02:53:55;;;;;;;9.18;2.88;;;12.70;78.70;;;;;;5022877;28;20044;-63
2022/11/10 02:56:39;;;;;;;10.60;3.08;;;12.70;78.70;;;;;;5019274;28;20111;-63
2022/11/10 02:59:23;;;;;;;10.82;3.13;;;12.70;78.80;;;;;;5010978;28;20103;-63
2022/11/10 03:02:07;;;;;;;13.00;2.83;;;12.70;78.80;;;;;;5032289;28;20076;-63
2022/11/10 03:04:51;;;;;;;7.78;2.30;;;12.70;78.90;;;;;;5014681;28;20517;-63
2022/11/10 03:07:35;;;;;;;8.20;2.83;;;12.60;78.90;;;;;;5014114;28;20466;-63
2022/11/10 03:10:19;;;;;;;10.35;3.00;;;12.70;78.90;;;;;;5021407;28;20474;-63
2022/11/10 03:13:03;;;;;;;11.20;2.65;;;12.60;78.90;;;;;;5024717;28;20052;-63
2022/11/10 03:15:47;;;;;;;9.82;3.13;;;12.60;78.90;;;;;;5014564;28;20037;-62
2022/11/10 03:18:32;;;;;;;8.50;2.80;;;12.70;79.00;;;;;;5031174;28;20088;-63
2022/11/10 03:21:16;;;;;;;13.50;2.95;;;12.60;79.00;;;;;;5026209;28;20536;-62
2022/11/10 03:24:00;;;;;;;9.18;2.67;;;12.60;78.90;;;;;;5020269;28;20083;-63
2022/11/10 03:26:44;;;;;;;11.05;2.88;;;12.60;79.00;;;;;;5026401;28;20041;-63
2022/11/10 03:29:28;;;;;;;9.25;2.88;;;12.60;79.00;;;;;;5027701;28;20038;-63
2022/11/10 03:32:12;;;;;;;15.18;3.63;;;12.60;79.00;;;;;;5021248;28;20437;-63
2022/11/10 03:34:56;;;;;;;11.00;2.75;;;12.60;79.00;;;;;;5022629;28;20172;-62
2022/11/10 03:37:41;;;;;;;8.07;2.80;;;12.50;79.00;;;;;;5029519;28;20194;-62
2022/11/10 03:40:25;;;;;;;12.13;3.22;;;12.50;79.00;;;;;;5010749;28;20041;-62
2022/11/10 03:43:10;;;;;;;8.98;2.45;;;12.50;79.00;;;;;;5021947;28;20115;-63
2022/11/10 03:45:55;;;;;;;12.20;3.30;;;12.50;79.00;;;;;;5012676;28;20032;-63
2022/11/10 03:48:39;;;;;;;9.43;2.83;;;12.50;79.00;;;;;;5014351;28;20434;-63
2022/11/10 03:51:23;;;;;;;11.43;2.85;;;12.40;79.00;;;;;;5006544;28;20045;-63
2022/11/10 03:54:07;;;;;;;12.50;3.13;;;12.40;79.00;;;;;;4995370;28;20037;-63
2022/11/10 03:56:51;;;;;;;14.00;3.28;;;12.40;79.00;;;;;;4997842;28;20172;-63
2022/11/10 03:59:35;;;;;;;11.75;3.30;;;12.40;79.00;;;;;;5003399;28;20136;-63
2022/11/10 04:02:19;;;;;;;13.80;3.63;;;12.40;79.10;;;;;;4996349;28;20046;-63
2022/11/10 04:17:23;;;;;;;6.82;2.70;;;12.30;79.10;;;;;;4998677;28;20041;-63
2022/11/10 04:20:08;;;;;;;9.10;2.75;;;12.30;79.20;;;;;;4996591;28;20057;-63
2022/11/10 04:26:28;;;;;;;13.65;3.67;;;12.30;79.20;;;;;;4996621;28;20052;-63
2022/11/10 04:29:15;;;;;;;12.20;2.83;;;12.30;79.20;;;;;;5000879;28;20099;-63
2022/11/10 04:31:59;;;;;;;11.68;2.60;;;12.30;79.10;;;;;;4997759;28;20065;-63
2022/11/10 04:34:43;;;;;;;10.95;2.53;;;12.30;79.20;;;;;;4998845;28;20367;-63
2022/11/10 04:37:27;;;;;;;10.20;2.60;;;12.30;79.20;;;;;;4995320;28;20061;-63
2022/11/10 04:40:11;;;;;;;9.18;3.00;;;12.30;79.30;;;;;;4999299;28;20230;-63
2022/11/10 04:42:55;;;;;;;7.93;2.45;;;12.30;79.30;;;;;;4994963;28;20360;-63
2022/11/10 04:45:40;;;;;;;11.80;2.95;;;12.30;79.30;;;;;;4996805;28;20575;-63
2022/11/10 04:48:25;;;;;;;11.77;2.72;;;12.30;79.30;;;;;;4997838;28;20076;-63
2022/11/10 04:51:10;;;;;;;11.48;3.15;;;12.30;79.30;;;;;;4999284;28;20097;-63
2022/11/10 04:53:55;;;;;;;11.35;2.80;;;12.30;79.30;;;;;;4995132;28;20041;-63
2022/11/10 04:56:39;;;;;;;11.38;3.72;;;12.30;79.30;;;;;;4998654;28;20044;-63
2022/11/10 04:59:23;;;;;;;11.68;2.80;;;12.30;79.40;;;;;;5007620;28;20040;-63
2022/11/10 05:02:07;;;;;;;10.25;2.83;;;12.30;79.40;;;;;;5009404;28;20037;-63
2022/11/10 05:04:51;;;;;;;11.20;2.83;;;12.30;79.40;;;;;;4999578;28;20088;-63
2022/11/10 05:07:35;;;;;;;9.07;2.83;;;12.30;79.40;;;;;;5002990;28;21316;-63
2022/11/10 05:10:19;;;;;;;10.95;2.90;;;12.30;79.40;;;;;;5002434;28;20068;-63
2022/11/10 05:13:03;;;;;;;13.38;3.08;;;12.30;79.50;;;;;;5009224;28;20099;-63
2022/11/10 05:15:47;;;;;;;11.10;3.00;;;12.30;79.50;;;;;;5013458;28;20045;-63
2022/11/10 05:18:31;;;;;;;7.00;2.13;;;12.30;79.50;;;;;;4999759;28;20077;-63
2022/11/10 05:21:16;;;;;;;9.57;2.83;;;12.30;79.50;;;;;;5003289;28;20103;-63
2022/11/10 05:24:00;;;;;;;10.77;2.60;;;12.30;79.50;;;;;;5011631;28;20096;-63
2022/11/10 05:26:44;;;;;;;7.72;2.38;;;12.30;79.50;;;;;;5009664;28;20037;-64
2022/11/10 05:29:28;;;;;;;10.15;2.35;;;12.30;79.50;;;;;;5035160;28;20084;-63
2022/11/10 05:32:12;;;;;;;9.50;2.70;;;12.30;79.50;;;;;;5020913;28;20103;-62
2022/11/10 05:34:56;;;;;;;9.75;3.00;;;12.30;79.50;;;;;;5014178;28;20180;-62
2022/11/10 05:37:40;;;;;;;10.52;2.97;;;12.30;79.60;;;;;;5020269;28;20401;-63
2022/11/10 05:40:24;;;;;;;13.27;2.95;;;12.30;79.60;;;;;;5014635;28;20084;-63
2022/11/10 05:43:09;;;;;;;12.20;2.50;;;12.30;79.60;;;;;;5018589;28;20084;-65
2022/11/10 05:45:53;;;;;;;11.93;3.03;;;12.30;79.50;;;;;;5017581;28;20044;-63
2022/11/10 05:48:37;;;;;;;11.38;2.45;;;12.30;79.50;;;;;;5011975;28;20058;-63
2022/11/10 05:51:21;;;;;;;10.80;2.88;;;12.30;79.60;;;;;;5014277;28;20525;-63
2022/11/10 05:54:07;;;;;;;11.40;2.47;;;12.20;79.50;;;;;;5013613;28;20040;-63
2022/11/10 05:56:51;;;;;;;8.25;2.22;;;12.20;79.60;;;;;;5016119;28;20142;-63
2022/11/10 05:59:36;;;;;;;9.90;2.80;;;12.30;80.30;;;;;;5026352;28;20084;-62
2022/11/10 06:02:20;;;;;;;7.43;2.88;;;12.20;79.60;;;;;;5005972;28;20049;-63
2022/11/10 06:05:05;;;;;;;10.45;2.33;;;12.20;79.70;;;;;;5015905;28;20029;-63
2022/11/10 06:07:49;;;;;;;13.55;3.00;;;12.20;79.70;;;;;;5017415;28;20454;-62
2022/11/10 06:10:34;;;;;;;16.65;2.88;;;12.20;79.70;;;;;;5003488;28;20350;-63
2022/11/10 06:13:18;;;;;;;7.50;2.55;;;12.20;79.70;;;;;;5016318;28;20041;-62
2022/11/10 06:16:02;;;;;;;9.63;2.50;;;12.20;79.70;;;;;;5017393;28;20133;-62
2022/11/10 06:18:46;;;;;;;8.48;2.55;;;12.20;79.70;;;;;;5013551;28;20109;-63
2022/11/10 06:21:30;;;;;;;9.00;3.15;;;12.20;79.70;;;;;;5013763;28;20068;-63
2022/11/10 06:24:14;;;;;;;13.50;3.38;;;12.10;79.70;;;;;;5014425;28;20036;-62
2022/11/10 06:26:58;;;;;;;10.80;2.20;;;12.20;79.80;;;;;;5013485;28;20052;-63
2022/11/10 06:29:42;;;;;;;8.02;2.88;;;12.10;79.80;;;;;;5014829;28;20041;-63
2022/11/10 06:32:26;;;;;;;11.82;2.67;;;12.10;79.70;;;;;;5014628;28;20416;-62
2022/11/10 06:35:10;;;;;;;10.88;2.45;;;12.10;79.70;;;;;;5012743;28;20473;-63
2022/11/10 06:38:02;;;;;;;10.68;3.00;;;12.10;79.70;;;;;;5012974;28;20045;-63
2022/11/10 06:40:46;;;;;;;10.18;2.50;;;12.10;79.80;;;;;;5013868;28;20092;-63
2022/11/10 06:43:30;;;;;;;11.13;3.50;;;12.10;79.80;;;;;;5014150;28;20370;-63
2022/11/10 06:46:14;;;;;;;9.95;2.58;;;12.10;79.80;;;;;;5005964;28;20037;-62
2022/11/10 06:48:58;;;;;;;11.65;2.60;;;12.10;79.80;;;;;;5015579;28;20040;-63
2022/11/10 06:51:43;;;;;;;10.52;3.28;;;12.10;79.80;;;;;;5012435;28;20037;-64
2022/11/10 06:54:27;;;;;;;9.98;2.33;;;12.10;79.80;;;;;;5013606;28;20127;-63
2022/11/10 06:57:11;;;;;;;9.52;2.33;;;12.20;79.80;;;;;;5013568;28;20072;-63
2022/11/10 06:59:55;;;;;;;6.63;2.33;;;12.20;79.70;;;;;;5014336;28;20041;-64
2022/11/10 07:02:39;;;;;;;16.25;3.00;;;12.20;79.60;;;;;;5015991;28;20390;-63
2022/11/10 07:05:23;;;;;;;10.93;2.97;;;12.30;79.60;;;;;;5014096;28;20061;-63
2022/11/10 07:08:15;;;;;;;7.65;2.10;;;12.20;79.60;;;;;;5013816;28;20046;-63
2022/11/10 07:10:59;;;;;;;13.15;3.15;;;12.20;79.60;;;;;;5015121;28;20591;-63
2022/11/10 07:13:43;;;;;;;13.82;2.80;;;12.20;79.60;;;;;;5012176;28;20184;-63
2022/11/10 07:16:27;;;;;;;11.82;2.55;;;12.20;79.60;;;;;;5013987;28;20041;-63
2022/11/10 07:19:11;;;;;;;14.38;2.78;;;12.20;79.70;;;;;;5010872;28;20057;-62
2022/11/10 07:21:55;;;;;;;10.98;2.58;;;12.20;79.70;;;;;;5012900;28;20049;-62
2022/11/10 07:24:40;;;;;;;7.95;2.65;;;12.20;79.70;;;;;;5013794;28;20092;-61
2022/11/10 07:27:24;;;;;;;9.75;2.58;;;12.20;79.60;;;;;;5012456;28;20096;-61
2022/11/10 07:30:09;;;;;;;10.18;2.72;;;12.20;79.60;;;;;;5012412;28;20397;-61
2022/11/10 07:33:00;;;;;;;12.57;3.03;;;12.30;79.60;;;;;;5010796;28;20402;-62
2022/11/10 07:35:52;;;;;;;;;;;12.30;79.60;;;;;;5012907;28;20129;-62
2022/11/10 07:38:36;;;;;;;11.85;2.63;;;12.30;79.50;;;;;;5010000;28;19967;-61
2022/11/10 07:41:20;;;;;;;11.40;3.00;;;12.30;79.50;;;;;;5012843;28;20060;-61
2022/11/10 07:44:05;;;;;;;12.38;3.33;;;12.30;79.50;;;;;;5013022;28;20044;-61
2022/11/10 07:46:49;;;;;;;8.65;2.55;;;12.30;79.50;;;;;;5013819;28;20144;-61
2022/11/10 07:49:33;;;;;;;9.68;2.55;;;12.30;79.50;;;;;;5012745;28;20037;-61
2022/11/10 07:52:17;;;;;;;7.30;2.58;;;12.40;79.50;;;;;;5012818;28;20060;-61
2022/11/10 07:55:01;;;;;;;7.60;2.20;;;12.40;79.50;;;;;;5012544;28;20068;-61
2022/11/10 07:57:45;;;;;;;8.80;2.72;;;12.40;79.40;;;;;;5013175;28;20036;-61
2022/11/10 08:00:30;;;;;;;13.30;2.80;;;12.50;79.40;;;;;;5011135;28;20437;-61
2022/11/10 08:03:18;;;;;;;14.50;3.33;;;12.50;79.30;;;;;;5013505;28;20394;-61
2022/11/10 08:06:02;;;;;;;12.68;3.25;;;12.60;79.30;;;;;;5011718;28;20037;-61
2022/11/10 08:08:46;;;;;;;8.88;2.75;;;12.60;79.20;;;;;;5010508;28;20466;-61
2022/11/10 08:11:30;;;;;;;9.02;2.50;;;12.60;79.20;;;;;;5011855;28;20045;-62
2022/11/10 08:14:15;;;;;;;10.43;3.13;;;12.70;79.10;;;;;;5013024;28;20063;-61
2022/11/10 08:16:58;;;;;;;13.93;2.85;;;12.70;79.00;;;;;;5011631;28;20065;-64
2022/11/10 08:19:43;;;;;;;13.98;2.60;;;12.80;79.00;;;;;;5012968;28;20473;-61
2022/11/10 08:22:27;;;;;;;10.85;2.38;;;12.80;78.90;;;;;;4996263;28;20148;-62
2022/11/10 08:25:11;;;;;;;13.77;3.15;;;12.90;78.90;;;;;;5009051;28;20124;-62
2022/11/10 08:28:00;;;;;;;10.50;2.58;;;13.00;78.80;;;;;;5013216;28;20068;-62
2022/11/10 08:30:46;;;;;;;13.23;3.05;;;13.00;78.70;;;;;;5014305;28;20171;-62
2022/11/10 08:33:30;;;;;;;11.20;3.25;;;13.10;78.60;;;;;;5018608;28;20492;-62
2022/11/10 08:36:14;;;;;;;9.27;2.72;;;13.10;78.40;;;;;;5017312;28;20099;-62
2022/11/10 08:38:58;;;;;;;11.40;3.60;;;13.20;78.40;;;;;;5017568;28;21485;-62
2022/11/10 08:41:42;;;;;;;10.00;2.65;;;13.30;78.30;;;;;;5015322;28;20443;-62
2022/11/10 08:44:26;;;;;;;10.52;3.03;;;13.40;78.20;;;;;;5018018;28;20152;-62
2022/11/10 08:47:11;;;;;;;12.77;2.97;;;13.40;78.00;;;;;;5013391;28;20045;-62
2022/11/10 08:49:55;;;;;;;11.95;2.80;;;13.50;77.90;;;;;;5017380;28;20084;-62
2022/11/10 08:52:39;;;;;;;11.50;3.20;;;13.60;77.70;;;;;;5017593;28;20414;-62
2022/11/10 08:55:23;;;;;;;9.52;3.00;;;13.70;77.60;;;;;;5013264;28;20501;-62
2022/11/10 08:58:10;;;;;;;12.10;3.40;;;13.80;77.40;;;;;;5015980;28;20084;-62
2022/11/10 09:00:55;;;;;;;8.55;2.70;;;13.90;77.30;;;;;;5017373;28;20506;-62
2022/11/10 09:03:40;;;;;;;11.15;1.98;;;13.90;77.00;;;;;;5017776;28;20045;-62
2022/11/10 09:06:23;;;;;;;11.63;2.42;;;14.00;77.60;;;;;;5018119;28;20355;-62
2022/11/10 09:09:07;;;;;;;9.73;2.58;;;14.10;76.90;;;;;;5018303;28;20048;-62
2022/11/10 09:11:52;;;;;;;14.82;3.35;;;14.10;76.70;;;;;;5018035;28;20084;-62
2022/11/10 09:14:36;;;;;;;9.00;2.33;;;14.20;76.70;;;;;;5018200;28;20129;-62
2022/11/10 09:17:20;;;;;;;12.35;3.05;;;14.20;76.60;;;;;;5017946;28;20088;-62
2022/11/10 09:20:06;;;;;;;8.98;2.72;;;14.30;76.50;;;;;;5017746;28;20045;-62
2022/11/10 09:22:50;;;;;;;12.50;2.78;;;14.30;76.30;;;;;;5007377;28;20072;-62
2022/11/10 09:25:35;;;;;;;12.40;2.50;;;14.40;76.20;;;;;;5017203;28;20078;-62
2022/11/10 09:28:20;;;;;;;10.55;3.03;;;14.50;76.00;;;;;;5011278;28;20482;-62
2022/11/10 09:31:04;;;;;;;13.65;2.50;;;14.50;75.90;;;;;;5005654;28;20045;-62
2022/11/10 09:33:48;;;;;;;10.82;2.65;;;14.60;75.80;;;;;;5015541;28;20387;-62
2022/11/10 09:36:32;;;;;;;13.23;3.10;;;14.70;75.50;;;;;;5007616;28;20501;-62
2022/11/10 09:39:17;;;;;;;12.52;2.72;;;14.80;75.30;;;;;;5017582;28;20052;-62
2022/11/10 09:42:04;;;;;;;12.05;2.75;;;14.90;75.10;;;;;;5016566;28;20056;-62
2022/11/10 09:44:58;;;;;;;11.38;2.88;;;15.10;74.80;;;;;;5017519;28;20427;-62
2022/11/10 09:48:01;;;;;;;10.00;2.63;;;15.20;74.40;;;;;;5017547;28;20363;-62
2022/11/10 09:51:18;;;;;;;9.75;2.70;;;15.40;74.00;;;;;;5017460;28;20075;-62
2022/11/10 09:54:09;;;;;;;12.10;2.75;;;15.50;73.60;;;;;;5008457;28;20040;-62
2022/11/10 09:56:59;;;;;;;8.43;2.17;;;15.70;73.30;;;;;;5003971;28;20048;-63
2022/11/10 09:59:43;;;;;;;8.00;2.33;;;15.90;73.00;;;;;;5017137;28;20133;-62
2022/11/10 10:02:33;;;;;;;13.38;2.83;;;16.00;72.60;;;;;;5016954;28;20048;-62
2022/11/10 10:05:35;;;;;;;12.50;2.50;;;16.20;72.20;;;;;;5017142;28;20465;-63
2022/11/10 10:08:26;;;;;;;12.55;3.05;;;16.40;71.80;;;;;;5016686;28;20044;-62
2022/11/10 10:11:19;;;;;;;10.80;2.85;;;16.50;71.50;;;;;;5009111;28;20048;-62
2022/11/10 10:14:24;;;;;;;12.38;3.38;;;16.60;71.30;;;;;;5016512;28;20431;-62
2022/11/10 10:17:35;;;;;;;10.93;2.78;;;16.70;71.00;;;;;;5035400;28;20032;-62
2022/11/10 10:20:42;;;;;;;10.10;2.72;;;16.80;70.70;;;;;;5036769;28;20142;-62
2022/11/10 10:23:44;;;;;;;10.13;2.60;;;16.90;70.60;;;;;;5027423;28;20043;-62
2022/11/10 10:26:32;;;;;;;13.85;2.88;;;17.00;70.30;;;;;;5009299;28;20087;-62
2022/11/10 10:29:26;;;;;;;11.95;2.58;;;17.00;70.20;;;;;;5036538;28;20061;-62
2022/11/10 10:32:14;;;;;;;13.88;2.75;;;17.10;70.10;;;;;;5036300;28;20071;-62
2022/11/10 10:34:58;;;;;;;11.23;2.58;;;17.10;69.80;;;;;;5009308;28;20163;-62
2022/11/10 10:37:44;;;;;;;14.07;2.63;;;17.20;69.80;;;;;;5024560;28;20107;-62
2022/11/10 10:40:28;;;;;;;9.27;2.75;;;17.20;69.60;;;;;;5036001;28;20517;-62
2022/11/10 10:43:13;;;;;;;10.35;2.58;;;17.30;69.40;;;;;;5035322;28;20396;-62
2022/11/10 10:46:26;;;;;;;8.52;2.25;;;17.30;69.30;;;;;;5036040;28;20121;-63
2022/11/10 10:49:24;;;;;;;8.68;2.25;;;17.30;69.10;;;;;;5023056;28;20132;-62
2022/11/10 10:52:14;;;;;;;9.90;1.95;;;17.30;69.00;;;;;;5015503;28;20092;-63
2022/11/10 10:55:00;;;;;;;9.02;2.25;;;17.30;69.00;;;;;;5015112;28;20045;-62
2022/11/10 10:57:50;;;;;;;8.10;2.30;;;17.30;68.90;;;;;;5016407;28;20041;-62
2022/11/10 11:00:45;;;;;;;12.20;2.67;;;17.20;68.70;;;;;;5015962;28;20415;-62
2022/11/10 11:03:37;;;;;;;11.10;2.67;;;17.20;68.80;;;;;;5015879;28;20462;-62
2022/11/10 11:06:24;;;;;;;;;;;17.10;68.90;;;;;;5016237;28;20123;-62
2022/11/10 11:09:18;;;;;;;11.18;1.92;;;17.10;69.10;;;;;;5005270;28;19920;-62
2022/11/10 11:12:24;;;;;;;8.07;1.90;;;17.20;69.10;;;;;;5015654;28;20100;-63
2022/11/10 11:15:28;;;;;;;11.20;2.10;;;17.20;68.90;;;;;;5015231;28;20064;-63
2022/11/10 11:18:27;;;;;;;9.75;2.40;;;17.20;68.80;;;;;;5072184;28;20448;-63
2022/11/10 11:21:32;;;;;;;11.82;2.67;;;17.30;68.70;;;;;;5072243;28;20203;-63
2022/11/10 11:24:38;;;;;;;10.13;2.60;;;17.30;68.80;;;;;;5040786;28;20385;-63
2022/11/10 11:27:50;;;;;;;11.45;2.63;;;17.20;68.60;;;;;;5061974;28;20083;-63
2022/11/10 11:30:52;;;;;;;13.20;2.90;;;17.20;68.70;;;;;;5051568;28;20126;-63
2022/11/10 11:33:39;;;;;;;6.05;1.65;;;17.00;68.80;;;;;;5071911;28;20048;-63
2022/11/10 11:36:39;;;;;;;9.23;1.90;;;16.90;69.00;;;;;;5071944;28;20048;-63
2022/11/10 11:39:32;;;;;;;9.15;2.20;;;16.80;69.20;;;;;;5044312;28;20094;-63
2022/11/10 11:42:40;;;;;;;10.73;2.78;;;16.70;69.20;;;;;;5060667;28;20040;-63
2022/11/10 11:45:52;;;;;;;11.85;2.40;;;16.70;69.20;;;;;;5059398;28;20040;-63
2022/11/10 11:49:13;;;;;;;10.77;2.15;;;16.60;69.40;;;;;;5060153;28;20102;-63
2022/11/10 11:52:12;;;;;;;8.85;2.30;;;16.50;69.70;;;;;;5045633;28;20130;-63
2022/11/10 11:55:18;;;;;;;10.98;2.55;;;16.40;69.90;;;;;;5066535;28;20074;-63
2022/11/10 11:58:27;;;;;;;8.93;2.80;;;16.40;70.00;;;;;;5055429;28;20421;-63
2022/11/10 12:01:47;;;;;;;8.32;2.42;;;16.30;70.80;;;;;;5057969;28;20035;-63
2022/11/10 12:04:51;;;;;;;11.43;2.30;;;16.20;70.10;;;;;;5050899;28;20228;-63
2022/11/10 12:07:50;;;;;;;8.65;2.30;;;16.30;70.30;;;;;;5050827;28;20068;-63
2022/11/10 12:10:44;;;;;;;10.15;2.38;;;16.30;70.30;;;;;;5050357;28;20087;-63
2022/11/10 12:14:11;;;;;;;11.80;2.70;;;16.30;70.20;;;;;;5050728;28;20052;-63
2022/11/10 12:17:11;;;;;;;6.90;2.13;;;16.30;70.10;;;;;;5049195;28;20125;-63
2022/11/10 12:20:28;;;;;;;8.35;1.83;;;16.40;70.10;;;;;;5049561;28;20028;-62
2022/11/10 12:23:43;;;;;;;8.85;1.85;;;16.40;70.00;;;;;;5046248;28;20033;-62
2022/11/10 12:26:33;;;;;;;12.07;2.28;;;16.30;70.00;;;;;;5048696;28;20453;-62
2022/11/10 12:29:47;;;;;;;7.82;2.17;;;16.30;70.10;;;;;;5041148;28;20048;-62
2022/11/10 12:32:51;;;;;;;11.55;2.30;;;16.20;70.10;;;;;;5034812;28;20052;-62
2022/11/10 12:35:40;;;;;;;9.93;2.13;;;16.20;70.70;;;;;;5035146;28;20033;-63
2022/11/10 12:38:47;;;;;;;8.77;2.05;;;16.20;70.00;;;;;;5034843;28;20136;-63
2022/11/10 12:41:38;;;;;;;6.25;1.80;;;16.20;70.00;;;;;;5036357;28;20301;-63
2022/11/10 12:44:41;;;;;;;8.20;2.07;;;16.20;70.00;;;;;;5035272;28;20425;-62
2022/11/10 12:47:32;;;;;;;10.30;2.25;;;16.30;70.00;;;;;;5035488;28;20275;-63
2022/11/10 12:50:42;;;;;;;8.40;1.85;;;16.20;69.90;;;;;;5034695;28;20053;-62
2022/11/10 12:53:31;;;;;;;24.42;4.25;;;16.20;69.90;;;;;;5034652;28;20041;-63
2022/11/10 12:56:28;;;;;;;15.13;2.70;;;16.20;70.00;;;;;;5036684;28;20481;-63
2022/11/10 12:59:23;;;;;;;7.35;1.90;;;16.20;70.00;;;;;;5036247;28;20032;-63
2022/11/10 13:02:33;;;;;;;8.77;2.00;;;16.20;70.10;;;;;;5037194;28;20041;-63
2022/11/10 13:05:44;;;;;;;10.20;2.47;;;16.20;70.10;;;;;;5036059;28;20072;-63
2022/11/10 13:08:28;;;;;;;10.25;2.13;;;16.20;70.10;;;;;;5027539;28;20374;-64
2022/11/10 13:11:12;;;;;;;7.68;1.83;;;16.20;70.10;;;;;;5036628;28;20465;-62
2022/11/10 13:13:59;;;;;;;8.43;1.95;;;16.20;70.00;;;;;;5036239;28;20098;-64
2022/11/10 13:16:48;;;;;;;11.75;2.67;;;16.20;70.00;;;;;;5025546;28;20111;-64
2022/11/10 13:19:32;;;;;;;9.38;2.10;;;16.20;70.00;;;;;;5036186;28;20362;-63
2022/11/10 13:22:35;;;;;;;7.72;1.80;;;16.20;69.90;;;;;;5035856;28;20080;-63
2022/11/10 13:25:37;;;;;;;4.43;1.45;;;16.30;69.90;;;;;;5028237;28;20124;-63
2022/11/10 13:28:47;;;;;;;7.93;1.77;;;16.30;69.80;;;;;;5035125;28;20076;-63
2022/11/10 13:31:31;;;;;;;10.43;1.98;;;16.30;69.90;;;;;;5036164;28;20048;-62
2022/11/10 13:34:32;;;;;;;7.63;1.75;;;16.20;69.80;;;;;;5035318;28;20044;-63
2022/11/10 13:37:31;;;;;;;8.65;1.80;;;16.20;69.80;;;;;;5035286;28;20044;-63
2022/11/10 13:40:16;;;;;;;7.30;1.50;;;16.20;69.70;;;;;;5033029;28;20049;-63
2022/11/10 13:43:00;;;;;;;7.57;1.63;;;16.20;69.70;;;;;;5035444;28;20378;-63
2022/11/10 13:45:45;;;;;;;10.30;1.60;;;16.20;69.70;;;;;;5035974;28;20048;-63
2022/11/10 13:48:46;;;;;;;10.52;1.75;;;16.20;69.70;;;;;;5035987;28;20056;-63
2022/11/10 13:51:47;;;;;;;7.05;1.90;;;16.10;69.60;;;;;;5053814;28;20098;-63
2022/11/10 13:54:53;;;;;;;9.02;2.47;;;16.10;69.70;;;;;;5055740;28;20056;-63
2022/11/10 13:57:38;;;;;;;14.05;2.40;;;16.10;69.70;;;;;;5040643;28;20067;-63
2022/11/10 14:00:27;;;;;;;8.52;1.67;;;16.10;69.80;;;;;;5037767;28;20076;-63
2022/11/10 14:03:43;;;;;;;10.10;1.73;;;16.00;69.70;;;;;;5051190;28;20036;-63
2022/11/10 14:06:45;;;;;;;6.97;1.80;;;16.00;69.70;;;;;;5037577;28;20072;-64
2022/11/10 14:09:38;;;;;;;19.13;9.13;;;16.00;69.80;;;;;;5034435;28;20107;-63
2022/11/10 14:12:47;;;;;;;16.35;8.00;;;16.00;69.80;;;;;;5034111;28;20072;-63
2022/11/10 14:15:40;;;;;;;10.85;4.28;;;16.00;69.70;;;;;;5039079;28;20608;-63
2022/11/10 14:18:28;;;;;;;12.18;4.75;;;16.00;69.80;;;;;;5038746;28;20121;-63
2022/11/10 14:21:21;;;;;;;12.90;5.60;;;16.00;69.80;;;;;;5036681;28;20095;-62
2022/11/10 14:24:15;;;;;;;9.45;3.05;;;16.00;69.80;;;;;;5028200;28;20539;-62
2022/11/10 14:27:05;;;;;;;8.68;2.25;;;15.90;69.80;;;;;;5022731;28;20114;-62
2022/11/10 14:30:04;;;;;;;12.00;2.37;;;15.90;69.90;;;;;;5034356;28;20127;-62
2022/11/10 14:32:59;;;;;;;10.88;2.63;;;15.90;69.80;;;;;;5033804;28;20099;-62
2022/11/10 14:35:50;;;;;;;7.28;2.00;;;15.80;69.90;;;;;;5030651;28;20087;-62
2022/11/10 14:38:42;;;;;;;10.10;2.63;;;15.80;69.90;;;;;;5030735;28;20111;-62
2022/11/10 14:41:26;;;;;;;6.18;2.00;;;15.80;69.90;;;;;;5030074;28;20168;-62
2022/11/10 14:44:18;;;;;;;7.07;1.98;;;15.80;70.00;;;;;;5025913;28;20033;-63
2022/11/10 14:47:15;;;;;;;7.22;2.00;;;15.80;70.00;;;;;;5026973;28;20098;-62
2022/11/10 14:50:17;;;;;;;6.32;1.60;;;15.80;70.00;;;;;;5045972;28;20039;-62
2022/11/10 14:53:03;;;;;;;5.75;1.95;;;15.80;70.00;;;;;;5043642;28;20052;-62